Time;durP1;ratioP1;P1;durP2;ratioP2;P2;SDS_P1;SDS_P2;PMS_P1;PMS_P2;Temp;Humidity;BMP_temperature;BMP_pressure;BME280_temperature;BME280_humidity;BME280_pressure;Samples;Min_cycle;Max_cycle;Signal;HPM_P1;HPM_P2
2023/03/23 00:04:31;;;;;;;0.98;0.60;;;;;;;11.96;100.00;97472.88;15269459;19;20015;-49
2023/03/23 00:09:57;;;;;;;1.65;0.68;;;;;;;12.00;100.00;97473.34;15265857;19;20028;-49
2023/03/23 00:15:25;;;;;;;0.93;0.47;;;;;;;12.00;100.00;97465.25;15268617;19;20029;-49
2023/03/23 00:20:51;;;;;;;0.75;0.47;;;;;;;11.97;100.00;97461.03;15274601;19;20034;-47
2023/03/23 00:26:15;;;;;;;2.40;0.60;;;;;;;11.95;100.00;97459.56;15274091;19;20022;-51
2023/03/23 00:31:46;;;;;;;0.57;0.57;;;;;;;11.96;100.00;97458.53;15270430;19;20014;-50
2023/03/23 00:37:21;;;;;;;0.55;0.40;;;;;;;11.94;100.00;97457.91;15265857;19;20656;-49
2023/03/23 00:42:46;;;;;;;1.38;0.50;;;;;;;11.98;100.00;97453.81;15271690;19;20014;-49
2023/03/23 00:48:13;;;;;;;1.15;0.55;;;;;;;11.96;100.00;97459.38;15266303;19;20019;-51
2023/03/23 00:53:39;;;;;;;0.90;0.60;;;;;;;12.00;100.00;97468.78;15271229;19;20102;-50
2023/03/23 00:59:05;;;;;;;1.98;0.50;;;;;;;12.05;100.00;97457.41;15271828;19;20014;-48
2023/03/23 01:04:36;;;;;;;0.63;0.50;;;;;;;12.06;100.00;97460.94;15266229;19;20521;-49
2023/03/23 01:10:01;;;;;;;0.40;0.40;;;;;;;12.05;100.00;97459.28;15266492;19;20019;-48
2023/03/23 01:15:26;;;;;;;0.75;0.50;;;;;;;12.05;100.00;97448.47;15271150;19;20277;-49
2023/03/23 01:20:53;;;;;;;1.23;0.57;;;;;;;12.04;100.00;97447.63;15270453;19;20676;-46
2023/03/23 01:26:21;;;;;;;1.48;0.45;;;;;;;12.01;100.00;97427.28;15283017;19;20018;-46
2023/03/23 01:31:46;;;;;;;0.38;0.38;;;;;;;12.02;100.00;97426.25;15282146;19;20081;-52
2023/03/23 01:37:25;;;;;;;0.80;0.52;;;;;;;11.97;100.00;97415.16;15277726;19;20010;-48
2023/03/23 01:42:51;;;;;;;1.90;0.43;;;;;;;11.94;100.00;97410.13;15280120;19;20014;-47
2023/03/23 01:48:23;;;;;;;1.80;0.38;;;;;;;11.92;100.00;97397.88;15278844;19;20018;-47
2023/03/23 01:53:56;;;;;;;0.47;0.47;;;;;;;11.92;100.00;97392.47;15278003;19;20011;-46
2023/03/23 01:59:21;;;;;;;0.68;0.47;;;;;;;11.85;100.00;97379.78;15281051;19;20018;-47
2023/03/23 02:05:05;;;;;;;0.80;0.50;;;;;;;11.80;100.00;97386.78;15281272;19;20463;-46
2023/03/23 02:10:32;;;;;;;0.45;0.30;;;;;;;11.77;100.00;97384.47;15277714;19;20026;-47
2023/03/23 02:16:07;;;;;;;0.90;0.45;;;;;;;11.72;100.00;97380.47;15277527;19;20022;-47
2023/03/23 02:22:04;;;;;;;0.73;0.50;;;;;;;11.73;100.00;97378.63;15281731;19;20413;-49
2023/03/23 02:27:58;;;;;;;1.88;0.50;;;;;;;11.77;100.00;97370.97;15273012;19;20014;-47
2023/03/23 02:33:45;;;;;;;0.50;0.50;;;;;;;11.82;100.00;97361.28;15275987;19;20037;-48
2023/03/23 02:39:14;;;;;;;0.70;0.50;;;;;;;11.88;100.00;97363.19;15278173;19;20624;-48
2023/03/23 02:44:43;;;;;;;0.95;0.52;;;;;;;11.97;100.00;97346.84;15277554;19;20024;-49
2023/03/23 02:50:14;;;;;;;2.13;0.55;;;;;;;12.00;100.00;97343.78;15274597;19;20025;-51
2023/03/23 02:55:41;;;;;;;0.97;0.60;;;;;;;12.14;100.00;97336.63;15276024;19;20050;-48
2023/03/23 03:01:39;;;;;;;0.63;0.50;;;;;;;12.26;100.00;97331.47;15277780;19;20022;-49
2023/03/23 03:07:27;;;;;;;0.68;0.50;;;;;;;12.43;100.00;97332.84;15274616;19;20051;-49
2023/03/23 03:12:59;;;;;;;0.65;0.55;;;;;;;12.46;100.00;97318.09;15276577;19;20475;-49
2023/03/23 03:18:29;;;;;;;2.00;0.52;;;;;;;12.45;100.00;97311.00;15275496;19;20018;-47
2023/03/23 03:24:01;;;;;;;0.75;0.60;;;;;;;12.36;100.00;97310.34;15276381;19;20051;-51
2023/03/23 03:29:29;;;;;;;0.93;0.70;;;;;;;12.30;100.00;97313.84;15270257;19;20026;-49
2023/03/23 03:34:54;;;;;;;1.50;0.60;;;;;;;12.23;100.00;97310.28;15271260;19;21342;-50
2023/03/23 03:40:25;;;;;;;1.52;0.60;;;;;;;12.22;100.00;97295.13;15271563;19;20030;-48
2023/03/23 03:45:51;;;;;;;1.25;0.60;;;;;;;12.22;100.00;97289.72;15271855;19;20018;-49
2023/03/23 03:51:16;;;;;;;4.13;0.70;;;;;;;12.36;100.00;97296.00;15272748;19;20016;-51
2023/03/23 03:56:45;;;;;;;1.30;0.50;;;;;;;12.42;100.00;97308.69;15267981;19;20022;-49
2023/03/23 04:02:20;;;;;;;1.08;0.60;;;;;;;12.43;100.00;97304.97;15270674;19;20035;-50
2023/03/23 04:07:51;;;;;;;0.63;0.60;;;;;;;12.38;100.00;97312.84;15272522;19;20014;-48
2023/03/23 04:13:29;;;;;;;0.98;0.50;;;;;;;12.40;100.00;97318.91;15271084;19;20010;-48
2023/03/23 04:19:04;;;;;;;0.50;0.50;;;;;;;12.37;100.00;97314.72;15264658;19;20006;-48
2023/03/23 04:24:32;;;;;;;0.80;0.40;;;;;;;12.38;100.00;97320.97;15266728;19;20051;-51
2023/03/23 04:30:17;;;;;;;0.98;0.50;;;;;;;12.39;100.00;97314.53;15268963;19;20021;-47
2023/03/23 04:35:57;;;;;;;2.08;0.50;;;;;;;12.47;100.00;97333.25;15264278;19;20022;-47
2023/03/23 04:41:23;;;;;;;0.82;0.50;;;;;;;12.46;100.00;97347.78;15269511;19;20014;-47
2023/03/23 04:47:02;;;;;;;1.75;0.50;;;;;;;12.52;100.00;97351.56;15265855;19;20799;-48
2023/03/23 04:52:40;;;;;;;0.68;0.50;;;;;;;12.50;100.00;97343.66;15260907;19;20010;-49
2023/03/23 04:58:06;;;;;;;0.85;0.50;;;;;;;12.46;100.00;97339.69;15278956;19;20580;-48
2023/03/23 05:03:56;;;;;;;0.77;0.50;;;;;;;12.67;100.00;97329.81;15283437;19;20021;-49
2023/03/23 05:09:22;;;;;;;0.57;0.40;;;;;;;12.63;100.00;97341.03;15279998;19;20014;-48
2023/03/23 05:14:50;;;;;;;0.77;0.50;;;;;;;12.65;100.00;97330.03;15280014;19;20014;-47
2023/03/23 05:20:21;;;;;;;1.30;0.50;;;;;;;12.73;100.00;97331.72;15278469;19;20560;-48
2023/03/23 05:25:49;;;;;;;0.82;0.50;;;;;;;12.82;100.00;97333.19;15285023;19;20025;-49
2023/03/23 05:31:14;;;;;;;0.77;0.40;;;;;;;12.73;100.00;97343.34;15277598;19;20029;-47
2023/03/23 05:36:43;;;;;;;1.67;0.60;;;;;;;12.70;100.00;97337.50;15276710;19;20034;-48
2023/03/23 05:42:11;;;;;;;0.75;0.50;;;;;;;12.69;100.00;97352.06;15284423;19;20352;-48
2023/03/23 05:47:59;;;;;;;1.58;0.50;;;;;;;12.68;100.00;97372.84;15279763;19;20471;-49
2023/03/23 05:53:27;;;;;;;0.70;0.52;;;;;;;12.64;100.00;97375.09;15281519;19;20471;-48
2023/03/23 05:58:53;;;;;;;1.83;0.50;;;;;;;12.61;100.00;97372.81;15280032;19;20023;-51
2023/03/23 06:04:19;;;;;;;1.33;0.50;;;;;;;12.76;100.00;97375.38;15283029;19;20014;-50
2023/03/23 06:10:01;;;;;;;0.93;0.40;;;;;;;12.76;100.00;97366.41;15270933;19;20025;-50
2023/03/23 06:15:31;;;;;;;0.63;0.50;;;;;;;12.69;100.00;97388.03;15279310;19;20893;-50
2023/03/23 06:20:55;;;;;;;0.57;0.52;;;;;;;12.68;100.00;97377.41;15277426;19;20014;-49
2023/03/23 06:26:49;;;;;;;0.50;0.40;;;;;;;12.61;100.00;97394.44;15274455;19;20021;-50
2023/03/23 06:32:15;;;;;;;0.50;0.50;;;;;;;12.66;100.00;97406.50;15281592;19;20010;-51
2023/03/23 06:37:40;;;;;;;0.93;0.50;;;;;;;12.64;100.00;97418.34;15277512;19;20097;-50
2023/03/23 06:43:16;;;;;;;0.63;0.60;;;;;;;12.71;100.00;97415.66;15275526;19;20013;-55
2023/03/23 06:48:57;;;;;;;0.90;0.50;;;;;;;12.61;100.00;97420.59;15274191;19;20022;-52
2023/03/23 06:54:32;;;;;;;0.70;0.50;;;;;;;12.42;100.00;97432.94;15277944;19;20636;-54
2023/03/23 07:00:01;;;;;;;2.25;0.55;;;;;;;12.31;100.00;97437.88;15274287;19;20031;-55
2023/03/23 07:05:29;;;;;;;0.70;0.50;;;;;;;12.11;100.00;97445.00;15276913;19;20022;-53
2023/03/23 07:10:55;;;;;;;0.45;0.45;;;;;;;11.93;100.00;97450.81;15274837;19;20129;-48
2023/03/23 07:16:22;;;;;;;1.08;0.60;;;;;;;11.95;100.00;97438.81;15273146;19;20017;-49
2023/03/23 07:21:48;;;;;;;1.23;0.50;;;;;;;11.95;100.00;97444.19;15275342;19;20006;-49
2023/03/23 07:27:15;;;;;;;0.50;0.50;;;;;;;11.96;100.00;97440.47;15274510;19;20022;-48
2023/03/23 07:32:45;;;;;;;1.63;0.60;;;;;;;11.98;100.00;97427.66;15278083;19;20025;-50
2023/03/23 07:38:11;;;;;;;1.00;0.60;;;;;;;12.08;100.00;97426.47;15280936;19;20079;-50
2023/03/23 07:43:36;;;;;;;0.57;0.57;;;;;;;12.12;100.00;97443.97;15275716;19;20073;-48
2023/03/23 07:49:09;;;;;;;1.33;0.60;;;;;;;12.16;100.00;97435.28;15274664;19;20384;-49
2023/03/23 07:54:44;;;;;;;0.75;0.40;;;;;;;12.19;100.00;97442.13;15277107;19;20010;-50
2023/03/23 08:00:41;;;;;;;0.77;0.52;;;;;;;12.25;100.00;97427.03;15271964;19;20023;-49
2023/03/23 08:06:09;;;;;;;0.60;0.52;;;;;;;12.28;100.00;97438.28;15275787;19;20046;-52
2023/03/23 08:11:54;;;;;;;1.13;0.50;;;;;;;12.35;100.00;97437.50;15271858;19;20117;-49
2023/03/23 08:17:21;;;;;;;0.88;0.50;;;;;;;12.35;100.00;97445.59;15274743;19;20018;-50
2023/03/23 08:23:08;;;;;;;1.90;0.50;;;;;;;12.38;100.00;97439.81;15276584;19;20921;-47
2023/03/23 08:29:03;;;;;;;1.10;0.70;;;;;;;12.51;100.00;97453.41;15267214;19;20019;-49
2023/03/23 08:34:43;;;;;;;0.70;0.60;;;;;;;12.72;100.00;97432.72;15268691;19;20363;-48
2023/03/23 08:40:47;;;;;;;0.70;0.60;;;;;;;12.87;100.00;97436.16;15263788;19;20466;-50
2023/03/23 08:46:30;;;;;;;0.82;0.50;;;;;;;12.94;100.00;97446.97;15273421;19;20027;-49
2023/03/23 08:52:18;;;;;;;1.02;0.50;;;;;;;13.02;100.00;97429.75;15264385;19;20024;-50
2023/03/23 08:58:06;;;;;;;1.17;0.63;;;;;;;13.09;100.00;97433.34;15270642;19;20015;-48
2023/03/23 09:03:43;;;;;;;0.73;0.60;;;;;;;13.21;100.00;97430.88;15270868;19;20060;-47
2023/03/23 09:09:26;;;;;;;1.05;0.60;;;;;;;13.38;100.00;97439.44;15266651;19;20018;-49
2023/03/23 09:14:53;;;;;;;1.73;0.68;;;;;;;13.54;100.00;97431.00;15273393;19;20014;-50
2023/03/23 09:20:20;;;;;;;1.30;0.70;;;;;;;13.61;100.00;97433.72;15267537;19;20186;-47
2023/03/23 09:25:46;;;;;;;1.05;0.70;;;;;;;13.77;100.00;97428.94;15267695;19;20014;-48
2023/03/23 09:31:14;;;;;;;1.50;0.60;;;;;;;13.92;100.00;97448.53;15266125;19;20035;-53
2023/03/23 09:36:39;;;;;;;0.50;0.50;;;;;;;14.02;100.00;97456.25;15267801;19;20029;-52
2023/03/23 09:42:24;;;;;;;0.80;0.60;;;;;;;14.10;100.00;97445.22;15274825;19;20014;-51
2023/03/23 09:48:03;;;;;;;1.00;0.60;;;;;;;14.03;100.00;97441.69;15279545;19;20018;-50
2023/03/23 09:53:34;;;;;;;0.40;0.40;;;;;;;14.05;100.00;97442.31;15283078;19;20044;-50
2023/03/23 09:59:04;;;;;;;0.33;0.33;;;;;;;14.03;100.00;97433.56;15277910;19;20014;-52
2023/03/23 10:04:39;;;;;;;0.65;0.55;;;;;;;14.00;100.00;97440.19;15284212;19;20010;-48
2023/03/23 10:10:06;;;;;;;0.40;0.40;;;;;;;14.05;100.00;97442.31;15280091;19;20023;-47
2023/03/23 10:15:34;;;;;;;0.50;0.40;;;;;;;14.03;100.00;97439.78;15284415;19;20763;-49
2023/03/23 10:21:05;;;;;;;0.75;0.50;;;;;;;14.02;100.00;97448.97;15277936;19;20019;-49
2023/03/23 10:26:47;;;;;;;0.40;0.30;;;;;;;14.00;100.00;97461.06;15296522;19;20024;-51
2023/03/23 10:32:21;;;;;;;0.40;0.40;;;;;;;13.95;100.00;97463.53;15281152;19;20011;-50
2023/03/23 10:37:54;;;;;;;0.40;0.30;;;;;;;14.01;100.00;97468.13;15284129;19;20018;-48
2023/03/23 10:43:18;;;;;;;0.40;0.40;;;;;;;13.89;100.00;97480.63;15284163;19;20017;-50
2023/03/23 10:48:43;;;;;;;0.22;0.22;;;;;;;13.93;100.00;97485.41;15278505;19;20341;-54
2023/03/23 10:54:12;;;;;;;0.57;0.20;;;;;;;13.91;100.00;97483.97;15279914;19;20620;-50
2023/03/23 10:59:37;;;;;;;1.85;0.30;;;;;;;13.97;100.00;97475.84;15270742;19;20490;-50
2023/03/23 11:05:09;;;;;;;0.63;0.30;;;;;;;13.98;100.00;97472.09;15278663;19;20396;-48
2023/03/23 11:10:42;;;;;;;1.00;0.60;;;;;;;14.18;100.00;97476.69;15273282;19;20018;-48
2023/03/23 11:16:07;;;;;;;0.40;0.35;;;;;;;14.18;100.00;97490.22;15279234;19;20019;-48
2023/03/23 11:21:34;;;;;;;0.32;0.30;;;;;;;14.27;100.00;97472.72;15280338;19;20086;-50
2023/03/23 11:27:06;;;;;;;0.10;0.10;;;;;;;14.29;100.00;97473.34;15278520;19;20014;-49
2023/03/23 11:32:32;;;;;;;1.38;0.20;;;;;;;14.36;100.00;97484.19;15270422;19;20041;-47
2023/03/23 11:38:01;;;;;;;0.45;0.30;;;;;;;14.42;100.00;97458.13;15273077;19;20022;-48
2023/03/23 11:43:30;;;;;;;0.47;0.30;;;;;;;14.54;100.00;97477.28;15277667;19;20018;-50
2023/03/23 11:49:06;;;;;;;0.20;0.20;;;;;;;14.59;100.00;97480.22;15275131;19;20023;-50
2023/03/23 11:54:49;;;;;;;0.20;0.20;;;;;;;14.64;100.00;97472.28;15273100;19;20021;-53
2023/03/23 12:00:25;;;;;;;0.43;0.25;;;;;;;14.77;100.00;97472.28;15227360;19;20022;-51
2023/03/23 12:05:55;;;;;;;0.30;0.30;;;;;;;14.93;100.00;97489.97;15267691;19;20019;-50
2023/03/23 12:11:28;;;;;;;2.88;0.30;;;;;;;15.01;100.00;97499.75;15268531;19;20026;-49
2023/03/23 12:17:05;;;;;;;0.38;0.30;;;;;;;15.07;100.00;97468.22;15273694;19;20473;-51
2023/03/23 12:22:46;;;;;;;1.92;0.30;;;;;;;15.08;100.00;97445.50;15275541;19;20022;-50
2023/03/23 12:28:22;;;;;;;1.25;0.30;;;;;;;15.15;100.00;97457.16;15272335;19;20011;-50
2023/03/23 12:34:00;;;;;;;0.28;0.25;;;;;;;15.31;100.00;97465.84;15270658;19;20500;-54
2023/03/23 12:39:53;;;;;;;0.75;0.40;;;;;;;15.34;100.00;97466.28;15263312;19;20319;-52
2023/03/23 12:45:30;;;;;;;0.38;0.20;;;;;;;15.10;100.00;97484.94;15275563;19;20021;-49
2023/03/23 12:51:14;;;;;;;0.30;0.30;;;;;;;14.91;100.00;97488.53;15267345;19;20025;-54
2023/03/23 12:56:45;;;;;;;1.95;0.32;;;;;;;15.07;100.00;97479.94;15271087;19;20027;-49
2023/03/23 13:02:19;;;;;;;0.45;0.30;;;;;;;15.02;100.00;97463.44;15272739;19;20018;-52
2023/03/23 13:07:53;;;;;;;0.30;0.20;;;;;;;15.17;100.00;97454.22;15271170;19;20022;-46
2023/03/23 13:13:21;;;;;;;0.47;0.22;;;;;;;15.03;100.00;97459.69;15263450;19;20025;-49
2023/03/23 13:18:56;;;;;;;0.25;0.25;;;;;;;14.90;100.00;97457.03;15276446;19;20018;-46
2023/03/23 13:24:27;;;;;;;0.75;0.40;;;;;;;14.93;100.00;97470.16;15286181;19;20011;-49
2023/03/23 13:29:53;;;;;;;0.28;0.20;;;;;;;14.97;100.00;97460.56;15280762;19;20629;-48
2023/03/23 13:35:21;;;;;;;1.83;0.35;;;;;;;15.02;100.00;97446.38;15282898;19;20019;-49
2023/03/23 13:40:53;;;;;;;0.22;0.20;;;;;;;14.68;100.00;97457.28;15273109;19;20026;-52
2023/03/23 13:46:31;;;;;;;0.20;0.17;;;;;;;14.57;100.00;97449.78;15278398;19;20387;-50
2023/03/23 13:52:08;;;;;;;0.98;0.30;;;;;;;14.84;100.00;97445.16;15277016;19;20015;-49
2023/03/23 13:57:51;;;;;;;0.75;0.30;;;;;;;15.01;100.00;97450.13;15278390;19;20356;-51
2023/03/23 14:03:24;;;;;;;0.85;0.30;;;;;;;14.84;100.00;97436.19;15282067;19;20335;-50
2023/03/23 14:08:53;;;;;;;0.47;0.30;;;;;;;14.95;100.00;97444.50;15278679;19;20025;-46
2023/03/23 14:14:30;;;;;;;0.20;0.20;;;;;;;14.77;100.00;97464.16;15273294;19;20011;-48
2023/03/23 14:19:57;;;;;;;0.30;0.30;;;;;;;14.70;100.00;97457.09;15277481;19;20022;-48
2023/03/23 14:25:27;;;;;;;0.57;0.30;;;;;;;14.39;100.00;97462.09;14771776;19;10000833;-47
2023/03/23 14:30:57;;;;;;;0.30;0.30;;;;;;;14.23;100.00;97462.50;15274389;19;20054;-49
2023/03/23 14:36:22;;;;;;;0.30;0.30;;;;;;;14.06;100.00;97465.63;15277248;19;20057;-48
2023/03/23 14:41:46;;;;;;;0.32;0.17;;;;;;;13.94;100.00;97472.69;15281062;19;20022;-48
2023/03/23 14:47:20;;;;;;;0.20;0.20;;;;;;;13.81;100.00;97479.78;15274339;19;20364;-49
2023/03/23 14:52:44;;;;;;;0.30;0.30;;;;;;;13.77;100.00;97481.22;15275259;19;20048;-49
2023/03/23 14:58:17;;;;;;;0.70;0.20;;;;;;;13.72;100.00;97491.81;15276232;19;20420;-53
2023/03/23 15:03:46;;;;;;;0.30;0.20;;;;;;;13.70;100.00;97483.09;15280665;19;20037;-52
2023/03/23 15:09:14;;;;;;;0.20;0.20;;;;;;;13.71;100.00;97495.56;15274882;19;20025;-49
2023/03/23 15:14:47;;;;;;;0.30;0.30;;;;;;;13.75;100.00;97506.84;15272703;19;20014;-49
2023/03/23 15:20:30;;;;;;;0.20;0.20;;;;;;;13.75;100.00;97499.53;15265887;19;20026;-54
2023/03/23 15:25:56;;;;;;;0.65;0.30;;;;;;;13.78;100.00;97495.56;15275006;19;20023;-51
2023/03/23 15:31:21;;;;;;;0.50;0.30;;;;;;;13.82;100.00;97481.41;15270898;19;20035;-53
2023/03/23 15:36:48;;;;;;;0.45;0.40;;;;;;;13.96;100.00;97478.75;15273175;19;20048;-51
2023/03/23 15:42:14;;;;;;;0.57;0.30;;;;;;;13.96;100.00;97470.63;15275723;19;20022;-50
2023/03/23 15:47:41;;;;;;;0.52;0.30;;;;;;;14.18;100.00;97474.81;15271487;19;20360;-49
2023/03/23 15:53:32;;;;;;;0.30;0.30;;;;;;;14.12;100.00;97483.78;15271400;19;20018;-53
2023/03/23 15:58:58;;;;;;;0.30;0.30;;;;;;;14.05;100.00;97491.06;15262609;19;20014;-53
2023/03/23 16:04:27;;;;;;;0.30;0.20;;;;;;;14.00;100.00;97504.38;15264016;19;20021;-54
2023/03/23 16:09:55;;;;;;;0.73;0.40;;;;;;;14.15;100.00;97501.47;15261592;19;20018;-53
2023/03/23 16:15:21;;;;;;;0.77;0.22;;;;;;;14.07;100.00;97502.50;15265607;19;20660;-50
2023/03/23 16:20:45;;;;;;;1.80;0.32;;;;;;;13.97;100.00;97496.66;15258916;19;20018;-52
2023/03/23 16:26:13;;;;;;;0.43;0.25;;;;;;;13.88;100.00;97498.72;15256982;19;20041;-52
2023/03/23 16:31:38;;;;;;;0.20;0.20;;;;;;;13.79;100.00;97516.19;15259790;19;20018;-48
2023/03/23 16:37:03;;;;;;;0.30;0.20;;;;;;;13.71;100.00;97517.22;15253985;19;20014;-50
2023/03/23 16:42:31;;;;;;;1.13;0.32;;;;;;;13.68;100.00;97506.81;15260815;19;20025;-52
2023/03/23 16:48:00;;;;;;;0.20;0.20;;;;;;;13.63;100.00;97518.25;15245141;19;20023;-47
2023/03/23 16:53:26;;;;;;;0.30;0.30;;;;;;;13.58;100.00;97517.19;15241642;19;20042;-48
2023/03/23 16:58:54;;;;;;;0.45;0.30;;;;;;;13.48;100.00;97522.97;15250555;19;20014;-50
2023/03/23 17:04:25;;;;;;;0.40;0.30;;;;;;;13.31;100.00;97520.56;15259414;19;20015;-50
2023/03/23 17:09:49;;;;;;;0.40;0.40;;;;;;;13.19;100.00;97504.09;15257329;19;20374;-47
2023/03/23 17:15:19;;;;;;;0.75;0.40;;;;;;;13.13;100.00;97512.19;15252452;19;20017;-49
2023/03/23 17:20:44;;;;;;;0.30;0.30;;;;;;;13.05;100.00;97499.66;15255863;19;20022;-47
2023/03/23 17:26:09;;;;;;;13.05;0.70;;;;;;;12.89;100.00;97498.94;15257533;19;20006;-48
2023/03/23 17:31:37;;;;;;;5.57;0.50;;;;;;;12.92;100.00;97495.03;15256958;19;20010;-48
2023/03/23 17:37:02;;;;;;;4.47;0.40;;;;;;;12.95;100.00;97497.31;15257665;19;20033;-48
2023/03/23 17:42:27;;;;;;;2.70;0.32;;;;;;;12.89;100.00;97496.22;15258011;19;20022;-50
2023/03/23 17:48:01;;;;;;;1.10;0.40;;;;;;;12.86;100.00;97503.91;15255472;19;20056;-50
2023/03/23 17:53:27;;;;;;;0.52;0.40;;;;;;;12.83;100.00;97515.97;15255706;19;20493;-49
2023/03/23 17:58:52;;;;;;;0.57;0.50;;;;;;;12.78;100.00;97519.25;15252110;19;20015;-52
2023/03/23 18:04:21;;;;;;;0.80;0.50;;;;;;;12.74;100.00;97515.28;15271408;19;20021;-52
2023/03/23 18:09:46;;;;;;;1.05;0.75;;;;;;;12.73;100.00;97521.72;15269555;19;20025;-50
2023/03/23 18:15:12;;;;;;;0.80;0.80;;;;;;;12.65;100.00;97524.56;15265252;19;20011;-53
2023/03/23 18:20:41;;;;;;;0.80;0.55;;;;;;;12.59;100.00;97519.94;15273066;19;20018;-50
2023/03/23 18:26:08;;;;;;;0.85;0.85;;;;;;;12.58;100.00;97523.69;15273057;19;20717;-48
2023/03/23 18:31:38;;;;;;;0.70;0.70;;;;;;;12.44;100.00;97522.72;15265385;19;20007;-47
2023/03/23 18:37:06;;;;;;;0.70;0.70;;;;;;;12.32;100.00;97511.63;15274807;19;20018;-48
2023/03/23 18:42:31;;;;;;;0.60;0.60;;;;;;;12.25;100.00;97516.13;15275473;19;20022;-48
2023/03/23 18:47:55;;;;;;;0.70;0.60;;;;;;;12.08;100.00;97529.06;15269063;19;20611;-50
2023/03/23 18:53:24;;;;;;;1.15;0.60;;;;;;;11.86;100.00;97524.47;15268177;19;20033;-48
2023/03/23 18:58:49;;;;;;;4.35;0.80;;;;;;;11.75;100.00;97519.59;15266856;19;20022;-47
2023/03/23 19:04:14;;;;;;;0.77;0.70;;;;;;;11.65;100.00;97519.03;15263956;19;20010;-50
2023/03/23 19:09:44;;;;;;;1.02;0.70;;;;;;;11.70;100.00;97522.84;15266483;19;20028;-48
2023/03/23 19:15:08;;;;;;;1.77;1.00;;;;;;;11.74;100.00;97517.91;15264284;19;20022;-47
2023/03/23 19:20:32;;;;;;;0.73;0.55;;;;;;;11.75;100.00;97532.22;15267058;19;20801;-48
2023/03/23 19:26:29;;;;;;;1.90;0.70;;;;;;;11.69;100.00;97531.97;15262999;19;20019;-48
2023/03/23 19:31:55;;;;;;;1.08;0.65;;;;;;;11.78;100.00;97531.84;15264349;19;20033;-48
2023/03/23 19:37:21;;;;;;;1.33;0.50;;;;;;;11.80;100.00;97532.50;15235277;19;20476;-46
2023/03/23 19:42:48;;;;;;;1.17;0.60;;;;;;;11.85;100.00;97538.16;15269071;19;20014;-49
2023/03/23 19:48:14;;;;;;;0.70;0.70;;;;;;;11.79;100.00;97538.94;15269123;19;20115;-46
2023/03/23 19:53:40;;;;;;;1.23;0.50;;;;;;;11.78;100.00;97545.34;15269876;19;20018;-46
2023/03/23 19:59:09;;;;;;;0.63;0.50;;;;;;;11.72;100.00;97553.16;15270234;19;20530;-47
2023/03/23 20:04:36;;;;;;;0.50;0.50;;;;;;;11.66;100.00;97553.09;15274829;19;20017;-45
2023/03/23 20:10:03;;;;;;;0.40;0.40;;;;;;;11.69;100.00;97544.63;15257747;19;20024;-44
2023/03/23 20:15:31;;;;;;;0.60;0.60;;;;;;;11.67;100.00;97538.56;15260363;19;20022;-44
2023/03/23 20:20:56;;;;;;;0.80;0.55;;;;;;;11.63;100.00;97540.81;15258579;19;20023;-45
2023/03/23 20:26:23;;;;;;;0.70;0.45;;;;;;;11.59;100.00;97539.53;15267543;19;20042;-45
2023/03/23 20:31:51;;;;;;;0.65;0.50;;;;;;;11.60;100.00;97530.41;15268907;19;20085;-45
2023/03/23 20:37:19;;;;;;;0.50;0.50;;;;;;;11.56;100.00;97540.75;15272073;19;20021;-46
2023/03/23 20:42:47;;;;;;;0.52;0.50;;;;;;;11.57;100.00;97538.91;15269734;19;20014;-45
2023/03/23 20:48:21;;;;;;;0.75;0.63;;;;;;;11.55;100.00;97530.16;15270576;19;20015;-46
2023/03/23 20:53:47;;;;;;;0.68;0.68;;;;;;;11.56;100.00;97523.72;15272541;19;20017;-45
2023/03/23 20:59:12;;;;;;;1.20;0.50;;;;;;;11.51;100.00;97518.91;15248788;19;20350;-47
2023/03/23 21:04:41;;;;;;;0.80;0.63;;;;;;;11.46;100.00;97531.28;15272211;19;20018;-47
2023/03/23 21:10:06;;;;;;;0.57;0.50;;;;;;;11.45;100.00;97532.31;15269709;19;20023;-46
2023/03/23 21:15:31;;;;;;;0.75;0.50;;;;;;;11.43;100.00;97521.69;15264948;19;20007;-45
2023/03/23 21:20:59;;;;;;;0.52;0.52;;;;;;;11.39;100.00;97523.13;15270598;19;20374;-45
2023/03/23 21:26:29;;;;;;;0.60;0.60;;;;;;;11.33;100.00;97516.63;15271079;19;20017;-45
2023/03/23 21:31:54;;;;;;;0.60;0.60;;;;;;;11.27;100.00;97514.66;15271359;19;20020;-45
2023/03/23 21:37:28;;;;;;;1.80;0.53;;;;;;;11.21;100.00;97508.16;15273015;19;20109;-46
2023/03/23 21:42:54;;;;;;;0.50;0.50;;;;;;;11.19;100.00;97499.41;15287117;19;20050;-46
2023/03/23 21:48:20;;;;;;;0.65;0.50;;;;;;;11.13;100.00;97493.94;15277129;19;20028;-46
2023/03/23 21:53:48;;;;;;;0.60;0.60;;;;;;;11.10;100.00;97485.22;15283830;19;20010;-46
2023/03/23 21:59:13;;;;;;;1.00;0.77;;;;;;;11.05;100.00;97484.94;15280453;19;20070;-45
2023/03/23 22:04:38;;;;;;;0.60;0.60;;;;;;;11.04;100.00;97471.66;15290446;19;20021;-45
2023/03/23 22:10:10;;;;;;;1.98;0.70;;;;;;;10.98;100.00;97469.72;15278042;19;20019;-44
2023/03/23 22:15:36;;;;;;;2.08;0.73;;;;;;;10.91;100.00;97470.47;15276602;19;20381;-44
2023/03/23 22:21:01;;;;;;;0.70;0.63;;;;;;;10.88;100.00;97459.22;15272792;19;20753;-45
2023/03/23 22:26:29;;;;;;;1.17;0.85;;;;;;;10.87;100.00;97457.56;15280684;19;20037;-45
2023/03/23 22:31:55;;;;;;;1.00;0.70;;;;;;;10.81;100.00;97447.53;15280882;19;20015;-44
2023/03/23 22:37:21;;;;;;;1.40;0.80;;;;;;;10.77;100.00;97437.09;15276363;19;20849;-44
2023/03/23 22:42:48;;;;;;;1.00;0.80;;;;;;;10.87;100.00;97428.75;15278255;19;20022;-46
2023/03/23 22:48:13;;;;;;;0.95;0.57;;;;;;;10.98;100.00;97421.19;15278371;19;20092;-44
2023/03/23 22:53:38;;;;;;;0.82;0.70;;;;;;;11.01;100.00;97408.19;15279196;19;20046;-45
2023/03/23 22:59:05;;;;;;;0.65;0.60;;;;;;;11.05;100.00;97411.34;15280635;19;20015;-45
2023/03/23 23:04:31;;;;;;;1.75;0.80;;;;;;;11.08;100.00;97390.25;15282820;19;20046;-45
2023/03/23 23:09:50;;;;;;;1.40;1.00;;;;;;;11.21;100.00;97392.25;15277708;19;20110;-45
2023/03/23 23:15:21;;;;;;;1.95;0.93;;;;;;;11.24;100.00;97389.16;15277309;19;20014;-48
2023/03/23 23:20:49;;;;;;;1.33;0.93;;;;;;;11.30;100.00;97378.63;15278826;19;20023;-47
2023/03/23 23:26:17;;;;;;;0.82;0.80;;;;;;;11.38;100.00;97379.34;15277890;19;20012;-46
2023/03/23 23:31:44;;;;;;;1.70;0.90;;;;;;;11.51;100.00;97365.16;15280987;19;20035;-52
2023/03/23 23:37:10;;;;;;;1.38;0.80;;;;;;;11.53;100.00;97381.97;15280132;19;20027;-44
2023/03/23 23:42:36;;;;;;;2.00;1.00;;;;;;;11.56;100.00;97367.28;15283562;19;20010;-45
2023/03/23 23:48:04;;;;;;;1.15;0.77;;;;;;;11.55;100.00;97365.63;15279680;19;20650;-43
2023/03/23 23:53:31;;;;;;;1.73;0.80;;;;;;;11.55;100.00;97354.81;15282519;19;20027;-46
2023/03/23 23:58:56;;;;;;;1.45;0.90;;;;;;;11.59;100.00;97347.16;15281497;19;20027;-46
